Time;durP1;ratioP1;P1;durP2;ratioP2;P2;SDS_P1;SDS_P2;PMS_P1;PMS_P2;Temp;Humidity;BMP_temperature;BMP_pressure;BME280_temperature;BME280_humidity;BME280_pressure;Samples;Min_cycle;Max_cycle;Signal;HPM_P1;HPM_P2
2022/08/16 00:01:06;;;;;;;3.50;0.70;;;21.10;99.90;;;;;;4460020;32;20062;-68
2022/08/16 00:03:31;;;;;;;0.73;0.73;;;21.00;99.90;;;;;;4459528;32;20508;-67
2022/08/16 00:05:57;;;;;;;1.02;0.77;;;20.80;99.90;;;;;;4459734;32;20064;-67
2022/08/16 00:08:22;;;;;;;6.40;0.80;;;20.80;99.90;;;;;;4460143;32;20080;-67
2022/08/16 00:10:48;;;;;;;9.95;1.10;;;20.80;99.90;;;;;;4459881;32;20119;-67
2022/08/16 00:13:13;;;;;;;0.57;0.57;;;20.80;99.90;;;;;;4460981;32;20072;-67
2022/08/16 00:15:44;;;;;;;1.60;0.70;;;20.80;99.90;;;;;;4457131;32;20554;-67
2022/08/16 00:18:09;;;;;;;1.12;0.62;;;20.80;99.90;;;;;;4444487;32;20073;-67
2022/08/16 00:20:37;;;;;;;0.73;0.73;;;21.00;99.90;;;;;;4445392;32;20058;-67
2022/08/16 00:23:03;;;;;;;19.00;0.90;;;20.90;99.90;;;;;;4444153;32;20073;-67
2022/08/16 00:25:29;;;;;;;1.67;1.05;;;20.90;99.90;;;;;;4444252;32;20062;-67
2022/08/16 00:27:54;;;;;;;1.80;0.88;;;20.90;99.90;;;;;;4445554;32;20506;-67
2022/08/16 00:30:21;;;;;;;0.50;0.50;;;20.90;99.90;;;;;;4443869;32;20579;-68
2022/08/16 00:32:51;;;;;;;1.25;0.88;;;20.90;99.90;;;;;;4444917;32;20089;-67
2022/08/16 00:35:21;;;;;;;2.20;0.47;;;20.80;99.90;;;;;;4443618;32;20295;-67
2022/08/16 00:37:47;;;;;;;1.20;0.65;;;20.70;99.90;;;;;;4444060;32;20053;-67
2022/08/16 00:40:16;;;;;;;0.62;0.62;;;20.70;99.90;;;;;;4445067;32;20060;-67
2022/08/16 00:42:42;;;;;;;2.03;0.82;;;20.60;99.90;;;;;;4443100;32;20367;-67
2022/08/16 00:45:32;;;;;;;0.40;0.40;;;20.60;99.90;;;;;;4444120;32;20085;-67
2022/08/16 00:47:58;;;;;;;0.60;0.60;;;20.60;99.90;;;;;;4443911;32;20069;-67
2022/08/16 00:50:28;;;;;;;2.97;0.80;;;20.60;99.90;;;;;;4449198;32;20061;-67
2022/08/16 00:52:53;;;;;;;1.13;0.50;;;20.60;99.90;;;;;;4460392;32;20069;-67
2022/08/16 00:55:21;;;;;;;1.42;0.77;;;20.60;99.90;;;;;;4448260;32;20186;-67
2022/08/16 00:57:49;;;;;;;0.60;0.52;;;20.60;99.90;;;;;;4449146;32;20484;-67
2022/08/16 01:00:14;;;;;;;0.80;0.70;;;20.40;99.90;;;;;;4459262;32;20060;-67
2022/08/16 01:02:40;;;;;;;2.45;0.93;;;20.30;99.90;;;;;;4459275;32;20077;-67
2022/08/16 01:05:06;;;;;;;0.80;0.40;;;20.30;99.90;;;;;;4459785;32;20064;-67
2022/08/16 01:07:31;;;;;;;0.95;0.57;;;20.30;99.90;;;;;;4459173;32;20449;-67
2022/08/16 01:09:57;;;;;;;2.67;0.90;;;20.40;99.90;;;;;;4459400;32;20578;-67
2022/08/16 01:12:23;;;;;;;1.37;0.77;;;20.40;99.90;;;;;;4459897;32;20061;-67
2022/08/16 01:14:53;;;;;;;1.98;1.10;;;20.30;99.90;;;;;;4461940;32;20076;-67
2022/08/16 01:17:20;;;;;;;;;;;20.20;99.90;;;;;;4448753;32;20061;-67
2022/08/16 01:19:52;;;;;;;1.10;0.60;;;20.20;99.90;;;;;;4446692;32;19944;-67
2022/08/16 01:22:37;;;;;;;0.90;0.82;;;20.20;99.90;;;;;;4446732;32;20065;-67
2022/08/16 01:25:08;;;;;;;2.67;1.52;;;20.10;99.90;;;;;;4446702;32;20105;-67
2022/08/16 01:27:40;;;;;;;0.62;0.57;;;20.20;99.90;;;;;;4446040;32;20064;-67
2022/08/16 01:30:22;;;;;;;3.50;1.77;;;20.20;99.90;;;;;;4446459;32;20534;-67
2022/08/16 01:32:49;;;;;;;0.62;0.62;;;20.20;99.90;;;;;;4446519;32;20061;-67
2022/08/16 01:35:21;;;;;;;1.05;0.80;;;20.20;99.90;;;;;;4447201;32;20124;-67
2022/08/16 01:37:51;;;;;;;0.43;0.43;;;20.20;99.90;;;;;;4446725;32;20410;-67
2022/08/16 01:40:18;;;;;;;;;;;20.30;99.90;;;;;;4447440;32;20110;-67
2022/08/16 01:42:46;;;;;;;0.45;0.45;;;20.30;99.90;;;;;;4446911;32;19984;-67
2022/08/16 01:45:12;;;;;;;3.83;0.52;;;20.30;99.90;;;;;;4446290;32;20127;-67
2022/08/16 01:47:39;;;;;;;0.65;0.65;;;20.30;99.90;;;;;;4459848;32;20064;-67
2022/08/16 01:50:06;;;;;;;0.40;0.40;;;20.20;99.90;;;;;;4462328;32;20324;-67
2022/08/16 01:52:32;;;;;;;0.85;0.73;;;20.20;99.90;;;;;;4461553;32;20515;-67
2022/08/16 01:54:58;;;;;;;0.77;0.70;;;20.10;99.90;;;;;;4461930;32;20485;-67
2022/08/16 01:57:23;;;;;;;1.35;0.93;;;20.20;99.90;;;;;;4461591;32;20053;-67
2022/08/16 01:59:49;;;;;;;1.95;0.95;;;20.20;99.90;;;;;;4462409;32;20080;-67
2022/08/16 02:02:15;;;;;;;0.73;0.73;;;20.10;99.90;;;;;;4462739;32;20064;-67
2022/08/16 02:04:40;;;;;;;2.85;1.40;;;20.10;99.90;;;;;;4461340;32;20048;-67
2022/08/16 02:07:08;;;;;;;1.33;1.00;;;20.10;99.90;;;;;;4460799;32;20531;-67
2022/08/16 02:09:36;;;;;;;1.27;0.77;;;20.00;99.90;;;;;;4461442;32;20467;-67
2022/08/16 02:12:05;;;;;;;1.92;0.77;;;19.90;99.90;;;;;;4461274;32;20061;-67
2022/08/16 02:14:32;;;;;;;3.83;0.73;;;20.00;99.90;;;;;;4461047;32;20525;-67
2022/08/16 02:17:00;;;;;;;1.10;1.02;;;20.00;99.90;;;;;;4461559;32;20085;-67
2022/08/16 02:19:29;;;;;;;1.00;0.88;;;20.00;99.90;;;;;;4461259;32;20057;-67
2022/08/16 02:21:56;;;;;;;0.85;0.60;;;20.00;99.90;;;;;;4460659;32;20057;-67
2022/08/16 02:24:22;;;;;;;1.62;0.90;;;20.00;99.90;;;;;;4460070;32;20061;-67
2022/08/16 02:26:49;;;;;;;7.43;1.02;;;20.00;99.90;;;;;;4461121;32;20536;-67
2022/08/16 02:29:17;;;;;;;1.90;1.00;;;20.00;99.90;;;;;;4462143;32;20515;-67
2022/08/16 02:31:43;;;;;;;2.50;1.02;;;19.90;99.90;;;;;;4461117;32;20545;-68
2022/08/16 02:34:09;;;;;;;0.57;0.57;;;19.90;99.90;;;;;;4460855;32;20123;-69
2022/08/16 02:36:34;;;;;;;0.60;0.60;;;19.80;99.90;;;;;;4460261;32;20064;-68
2022/08/16 02:39:00;;;;;;;0.73;0.60;;;19.80;99.90;;;;;;4460657;32;20125;-67
2022/08/16 02:41:26;;;;;;;0.88;0.70;;;19.70;99.90;;;;;;4462455;32;20527;-67
2022/08/16 02:43:51;;;;;;;0.60;0.45;;;19.80;99.90;;;;;;4461024;32;20068;-67
2022/08/16 02:46:17;;;;;;;1.00;0.60;;;19.80;99.90;;;;;;4453605;32;20065;-67
2022/08/16 02:48:42;;;;;;;0.50;0.50;;;19.80;99.90;;;;;;4446039;32;20089;-67
2022/08/16 02:51:09;;;;;;;1.27;0.85;;;19.80;99.90;;;;;;4445881;32;20065;-67
2022/08/16 02:53:37;;;;;;;0.40;0.40;;;19.70;99.90;;;;;;4444729;32;20136;-67
2022/08/16 02:56:04;;;;;;;0.60;0.60;;;19.70;99.90;;;;;;4445597;32;20113;-66
2022/08/16 02:58:31;;;;;;;0.55;0.55;;;19.60;99.90;;;;;;4446144;32;20072;-67
2022/08/16 03:00:57;;;;;;;2.35;0.75;;;19.60;99.90;;;;;;4445881;32;20140;-67
2022/08/16 03:03:23;;;;;;;1.33;0.80;;;19.60;99.90;;;;;;4446380;32;20076;-67
2022/08/16 03:05:50;;;;;;;0.60;0.60;;;19.60;99.90;;;;;;4445777;32;20516;-67
2022/08/16 03:08:16;;;;;;;15.00;2.58;;;19.60;99.90;;;;;;4445914;32;20516;-67
2022/08/16 03:10:42;;;;;;;0.70;0.70;;;19.70;99.90;;;;;;4446146;32;20523;-67
2022/08/16 03:13:08;;;;;;;1.48;1.02;;;19.70;99.90;;;;;;4446089;32;20110;-67
2022/08/16 03:15:34;;;;;;;1.70;0.77;;;19.70;99.90;;;;;;4445194;32;20130;-67
2022/08/16 03:18:00;;;;;;;0.98;0.88;;;19.60;99.90;;;;;;4449479;32;20076;-67
2022/08/16 03:20:26;;;;;;;0.70;0.70;;;19.60;99.90;;;;;;4460596;32;20119;-67
2022/08/16 03:22:51;;;;;;;1.75;0.93;;;19.60;99.90;;;;;;4461471;32;20060;-68
2022/08/16 03:25:17;;;;;;;0.50;0.50;;;19.70;99.90;;;;;;4461158;32;20073;-66
2022/08/16 03:27:43;;;;;;;6.22;2.17;;;19.70;99.90;;;;;;4460925;32;20446;-66
2022/08/16 03:30:12;;;;;;;4.93;0.77;;;19.60;99.90;;;;;;4460893;32;20073;-66
2022/08/16 03:32:38;;;;;;;2.20;0.43;;;19.60;99.90;;;;;;4461016;32;20478;-66
2022/08/16 03:35:06;;;;;;;0.85;0.70;;;19.50;99.90;;;;;;4460129;32;20119;-66
2022/08/16 03:37:31;;;;;;;0.77;0.77;;;19.50;99.90;;;;;;4459287;32;20535;-66
2022/08/16 03:39:57;;;;;;;1.58;0.88;;;19.50;99.90;;;;;;4459580;32;20073;-66
2022/08/16 03:42:23;;;;;;;1.62;0.80;;;19.50;99.90;;;;;;4461306;32;20232;-66
2022/08/16 03:44:48;;;;;;;1.52;0.68;;;19.50;99.90;;;;;;4446179;32;20080;-66
2022/08/16 03:47:14;;;;;;;3.10;1.05;;;19.50;99.90;;;;;;4445968;32;20064;-68
2022/08/16 03:49:40;;;;;;;0.70;0.70;;;19.50;99.90;;;;;;4460013;32;20078;-67
2022/08/16 03:52:06;;;;;;;0.82;0.62;;;19.40;99.90;;;;;;4460812;32;20081;-67
2022/08/16 03:54:32;;;;;;;2.47;0.75;;;19.40;99.90;;;;;;4459588;32;20069;-68
2022/08/16 03:56:57;;;;;;;0.93;0.85;;;19.50;99.90;;;;;;4451244;32;20065;-68
2022/08/16 03:59:23;;;;;;;0.62;0.62;;;19.60;99.90;;;;;;4444143;32;20077;-68
2022/08/16 04:01:48;;;;;;;2.92;0.68;;;19.60;99.90;;;;;;4445126;32;20109;-68
2022/08/16 04:04:14;;;;;;;1.05;0.60;;;19.60;99.90;;;;;;4445458;32;20085;-68
2022/08/16 04:06:39;;;;;;;0.40;0.40;;;19.60;99.90;;;;;;4443788;32;20077;-68
2022/08/16 04:09:05;;;;;;;0.60;0.60;;;19.60;99.90;;;;;;4444332;32;20497;-68
2022/08/16 04:11:30;;;;;;;0.70;0.70;;;19.60;99.90;;;;;;4444431;32;20163;-68
2022/08/16 04:13:56;;;;;;;1.35;1.00;;;19.50;99.90;;;;;;4444341;32;20140;-68
2022/08/16 04:16:21;;;;;;;0.62;0.62;;;19.50;99.90;;;;;;4444562;32;20521;-67
2022/08/16 04:18:47;;;;;;;1.95;1.17;;;19.50;99.90;;;;;;4455369;32;20124;-67
2022/08/16 04:21:13;;;;;;;0.70;0.70;;;19.50;99.90;;;;;;4460268;32;20085;-67
2022/08/16 04:23:38;;;;;;;1.62;0.98;;;19.50;99.90;;;;;;4459910;32;20123;-67
2022/08/16 04:26:05;;;;;;;3.33;0.80;;;19.40;99.90;;;;;;4460419;32;20073;-67
2022/08/16 04:28:31;;;;;;;3.20;1.05;;;19.50;99.90;;;;;;4460917;32;20085;-67
2022/08/16 04:30:56;;;;;;;3.85;1.12;;;19.50;99.90;;;;;;4460424;32;20420;-68
2022/08/16 04:33:22;;;;;;;0.50;0.50;;;19.50;99.90;;;;;;4460809;32;20085;-67
2022/08/16 04:35:47;;;;;;;0.77;0.77;;;19.50;99.90;;;;;;4459329;32;20065;-67
2022/08/16 04:38:14;;;;;;;2.90;0.68;;;19.60;99.90;;;;;;4460669;32;20073;-67
2022/08/16 04:40:39;;;;;;;1.05;0.93;;;19.60;99.90;;;;;;4459607;32;20081;-67
2022/08/16 04:43:05;;;;;;;0.70;0.70;;;19.60;99.90;;;;;;4459873;32;20068;-67
2022/08/16 04:45:30;;;;;;;2.53;0.55;;;19.50;99.90;;;;;;4459577;32;20079;-67
2022/08/16 04:47:56;;;;;;;0.68;0.50;;;19.60;99.90;;;;;;4455517;32;20110;-67
2022/08/16 04:50:25;;;;;;;1.95;0.98;;;19.50;99.90;;;;;;4446537;32;20065;-67
2022/08/16 04:52:52;;;;;;;0.55;0.55;;;19.50;99.90;;;;;;4446788;32;20068;-67
2022/08/16 04:55:21;;;;;;;1.08;0.98;;;19.60;99.90;;;;;;4447038;32;20127;-67
2022/08/16 04:57:49;;;;;;;0.60;0.60;;;19.60;99.90;;;;;;4446691;32;20508;-67
2022/08/16 05:00:19;;;;;;;0.82;0.80;;;19.60;99.90;;;;;;4449888;32;20179;-68
2022/08/16 05:02:48;;;;;;;1.08;0.90;;;19.60;99.90;;;;;;4447406;32;20065;-68
2022/08/16 05:05:14;;;;;;;1.90;1.15;;;19.60;99.90;;;;;;4447581;32;20131;-67
2022/08/16 05:07:39;;;;;;;4.87;2.00;;;19.70;99.90;;;;;;4461994;32;20519;-67
2022/08/16 05:10:06;;;;;;;3.33;0.80;;;19.60;99.90;;;;;;4461882;32;20071;-67
2022/08/16 05:12:32;;;;;;;1.45;0.95;;;19.50;99.90;;;;;;4461869;32;20077;-67
2022/08/16 05:14:58;;;;;;;1.08;0.98;;;19.60;99.90;;;;;;4462160;32;20061;-67
2022/08/16 05:17:24;;;;;;;0.93;0.82;;;19.60;99.90;;;;;;4460782;32;20060;-67
2022/08/16 05:19:49;;;;;;;1.62;0.77;;;19.60;99.90;;;;;;4447927;32;20078;-67
2022/08/16 05:22:15;;;;;;;5.20;1.83;;;19.60;99.90;;;;;;4447446;32;20073;-68
2022/08/16 05:24:41;;;;;;;0.77;0.77;;;19.60;99.90;;;;;;4446497;32;20077;-67
2022/08/16 05:27:06;;;;;;;2.78;1.60;;;19.60;99.90;;;;;;4445926;32;20157;-68
2022/08/16 05:29:32;;;;;;;1.10;0.88;;;19.60;99.90;;;;;;4448418;32;20119;-67
2022/08/16 05:31:58;;;;;;;2.12;0.93;;;19.50;99.90;;;;;;4457537;32;20081;-68
2022/08/16 05:34:23;;;;;;;3.28;1.37;;;19.60;99.90;;;;;;4452529;32;20081;-68
2022/08/16 05:36:51;;;;;;;4.22;1.60;;;19.60;99.90;;;;;;4463195;32;20076;-68
2022/08/16 05:39:17;;;;;;;4.55;1.60;;;19.60;99.90;;;;;;4462656;32;20060;-68
2022/08/16 05:41:42;;;;;;;2.62;1.23;;;19.70;99.90;;;;;;4461932;32;20073;-67
2022/08/16 05:44:08;;;;;;;1.30;1.00;;;19.70;99.90;;;;;;4461626;32;20114;-68
2022/08/16 05:46:33;;;;;;;0.90;0.90;;;19.70;99.90;;;;;;4453622;32;20123;-68
2022/08/16 05:48:59;;;;;;;1.33;0.85;;;19.80;99.90;;;;;;4445525;32;20468;-68
2022/08/16 05:51:25;;;;;;;1.25;1.15;;;19.80;99.90;;;;;;4446054;32;20068;-68
2022/08/16 05:53:50;;;;;;;3.35;1.23;;;19.90;99.90;;;;;;4446586;32;20474;-68
2022/08/16 05:56:16;;;;;;;2.28;1.02;;;19.80;99.90;;;;;;4456818;32;20080;-68
2022/08/16 05:58:41;;;;;;;0.85;0.73;;;20.00;99.90;;;;;;4445827;32;20082;-68
2022/08/16 06:01:07;;;;;;;3.12;0.88;;;20.00;99.90;;;;;;4445513;32;20068;-68
2022/08/16 06:03:32;;;;;;;2.33;1.33;;;20.00;99.90;;;;;;4445928;32;20062;-68
2022/08/16 06:05:58;;;;;;;0.45;0.40;;;20.00;99.90;;;;;;4446272;32;20081;-68
2022/08/16 06:08:23;;;;;;;0.82;0.50;;;20.00;99.90;;;;;;4446476;32;20065;-67
2022/08/16 06:10:49;;;;;;;5.32;0.77;;;20.10;99.90;;;;;;4446743;32;20077;-67
2022/08/16 06:13:14;;;;;;;1.37;1.12;;;20.20;99.90;;;;;;4446120;32;20065;-67
2022/08/16 06:15:40;;;;;;;0.95;0.75;;;20.30;99.90;;;;;;4445850;32;20150;-68
2022/08/16 06:18:05;;;;;;;1.83;1.17;;;20.30;99.90;;;;;;4445521;32;20065;-68
2022/08/16 06:20:31;;;;;;;1.92;0.98;;;20.30;99.90;;;;;;4455952;32;20068;-67
2022/08/16 06:22:57;;;;;;;2.58;0.95;;;20.40;99.90;;;;;;4462207;32;20414;-67
2022/08/16 06:25:25;;;;;;;1.10;0.70;;;20.40;99.90;;;;;;4461466;32;20060;-67
2022/08/16 06:27:51;;;;;;;0.73;0.65;;;20.50;99.90;;;;;;4461509;32;20478;-67
2022/08/16 06:30:17;;;;;;;1.33;1.05;;;20.60;99.90;;;;;;4454155;32;20442;-67
2022/08/16 06:32:43;;;;;;;0.65;0.65;;;20.60;99.90;;;;;;4445738;32;20120;-68
2022/08/16 06:35:10;;;;;;;0.98;0.93;;;20.70;99.90;;;;;;4448965;32;20089;-67
2022/08/16 06:37:36;;;;;;;1.35;0.90;;;20.70;99.90;;;;;;4456185;32;20064;-67
2022/08/16 06:40:02;;;;;;;0.60;0.60;;;20.50;99.90;;;;;;4460714;32;20092;-67
2022/08/16 06:42:27;;;;;;;1.37;0.60;;;20.60;99.90;;;;;;4459040;32;20069;-67
2022/08/16 06:44:53;;;;;;;0.95;0.85;;;20.70;99.90;;;;;;4445513;32;20068;-67
2022/08/16 06:47:18;;;;;;;1.40;0.93;;;20.80;99.90;;;;;;4459854;32;20065;-67
2022/08/16 06:49:44;;;;;;;6.97;1.30;;;20.80;99.90;;;;;;4461470;32;20081;-67
2022/08/16 06:52:10;;;;;;;1.20;0.98;;;20.90;99.90;;;;;;4459395;32;20053;-67
2022/08/16 06:54:35;;;;;;;2.03;1.30;;;20.90;99.90;;;;;;4453125;32;20064;-67
2022/08/16 06:57:02;;;;;;;3.33;0.77;;;21.10;99.90;;;;;;4461813;32;20077;-67
2022/08/16 06:59:27;;;;;;;1.50;1.05;;;21.20;99.90;;;;;;4459718;32;20065;-67
2022/08/16 07:01:53;;;;;;;0.70;0.70;;;21.30;99.90;;;;;;4450908;32;20114;-67
2022/08/16 07:04:19;;;;;;;0.60;0.60;;;21.30;99.90;;;;;;4461522;32;20077;-67
2022/08/16 07:06:45;;;;;;;1.00;0.70;;;21.30;99.90;;;;;;4461631;32;20463;-67
2022/08/16 07:09:12;;;;;;;2.62;1.50;;;21.30;99.90;;;;;;4460591;32;20064;-67
2022/08/16 07:11:38;;;;;;;1.05;0.60;;;21.40;99.90;;;;;;4459724;32;20470;-67
2022/08/16 07:14:03;;;;;;;4.10;1.45;;;21.50;99.90;;;;;;4460622;32;20076;-67
2022/08/16 07:16:28;;;;;;;1.45;0.80;;;21.60;99.90;;;;;;4461286;32;20072;-67
2022/08/16 07:18:56;;;;;;;1.40;1.27;;;21.60;99.90;;;;;;4461622;32;20072;-67
2022/08/16 07:21:21;;;;;;;0.50;0.50;;;21.70;99.90;;;;;;4445959;32;20061;-67
2022/08/16 07:23:47;;;;;;;2.62;1.12;;;21.80;99.90;;;;;;4444968;32;20523;-67
2022/08/16 07:26:23;;;;;;;0.65;0.65;;;21.90;99.90;;;;;;4445563;32;20116;-67
2022/08/16 07:28:49;;;;;;;1.12;0.75;;;21.70;99.90;;;;;;4445274;32;20574;-67
2022/08/16 07:31:15;;;;;;;1.30;1.10;;;21.90;99.90;;;;;;4445663;32;20085;-67
2022/08/16 07:33:43;;;;;;;1.23;0.85;;;22.00;99.90;;;;;;4444124;32;20455;-67
2022/08/16 07:36:09;;;;;;;3.08;1.20;;;22.10;99.90;;;;;;4445583;32;20061;-68
2022/08/16 07:38:35;;;;;;;4.22;0.98;;;22.10;99.90;;;;;;4448893;32;20089;-67
2022/08/16 07:41:01;;;;;;;1.58;1.00;;;22.20;99.90;;;;;;4459317;32;20061;-68
2022/08/16 07:43:27;;;;;;;1.70;0.88;;;22.30;99.90;;;;;;4461195;32;20072;-67
2022/08/16 07:45:52;;;;;;;0.50;0.50;;;22.40;99.90;;;;;;4456863;32;20102;-67
2022/08/16 07:48:18;;;;;;;4.80;1.83;;;22.40;99.90;;;;;;4452904;32;20116;-67
2022/08/16 07:50:45;;;;;;;2.12;1.62;;;22.60;99.90;;;;;;4447473;32;20077;-67
2022/08/16 07:53:11;;;;;;;4.82;1.40;;;22.70;99.90;;;;;;4460959;32;20067;-68
2022/08/16 07:55:36;;;;;;;1.10;0.82;;;22.80;99.90;;;;;;4461455;32;20081;-68
2022/08/16 07:58:03;;;;;;;1.85;1.00;;;22.90;99.90;;;;;;4458248;32;20072;-67
2022/08/16 08:00:28;;;;;;;2.12;0.65;;;22.90;99.90;;;;;;4450053;32;20060;-66
2022/08/16 08:02:54;;;;;;;0.50;0.50;;;23.00;99.90;;;;;;4460507;32;20071;-67
2022/08/16 08:05:22;;;;;;;0.62;0.62;;;23.10;99.90;;;;;;4460866;32;20122;-67
2022/08/16 08:07:47;;;;;;;15.43;0.90;;;23.20;99.90;;;;;;4460203;32;20571;-68
2022/08/16 08:10:14;;;;;;;2.10;0.80;;;23.30;99.90;;;;;;4460462;32;20076;-68
2022/08/16 08:12:41;;;;;;;1.25;1.08;;;23.30;99.90;;;;;;4447679;32;20119;-68
2022/08/16 08:15:09;;;;;;;0.80;0.70;;;23.40;99.90;;;;;;4446012;32;20119;-68
2022/08/16 08:17:37;;;;;;;3.25;1.20;;;23.40;99.90;;;;;;4443624;32;20127;-68
2022/08/16 08:20:04;;;;;;;0.75;0.75;;;23.40;99.90;;;;;;4460202;32;20123;-68
2022/08/16 08:22:29;;;;;;;0.47;0.47;;;23.60;99.90;;;;;;4461288;32;20077;-68
2022/08/16 08:24:55;;;;;;;1.70;0.80;;;23.70;99.90;;;;;;4460736;32;20060;-68
2022/08/16 08:27:20;;;;;;;1.02;0.77;;;23.80;99.90;;;;;;4459767;32;20065;-68
2022/08/16 08:29:45;;;;;;;1.42;1.12;;;23.90;99.90;;;;;;4458991;32;20081;-68
2022/08/16 08:32:11;;;;;;;4.80;1.23;;;24.00;99.90;;;;;;4456777;32;108583;-69
2022/08/16 08:34:36;;;;;;;1.98;0.73;;;24.10;99.90;;;;;;4459851;32;20468;-68
2022/08/16 08:37:02;;;;;;;1.42;0.75;;;24.20;99.90;;;;;;4461019;32;20060;-68
2022/08/16 08:39:27;;;;;;;1.40;0.70;;;24.10;99.90;;;;;;4460067;32;20440;-68
2022/08/16 08:41:53;;;;;;;1.37;1.15;;;24.00;99.90;;;;;;4453691;32;20457;-68
2022/08/16 08:44:19;;;;;;;1.48;1.33;;;24.00;99.90;;;;;;4444858;32;20073;-68
2022/08/16 08:46:45;;;;;;;3.85;0.68;;;24.30;99.90;;;;;;4454414;32;20056;-68
2022/08/16 08:49:11;;;;;;;2.45;0.65;;;24.40;99.90;;;;;;4454814;32;20084;-68
2022/08/16 08:51:37;;;;;;;1.10;0.68;;;24.50;99.90;;;;;;4452003;32;20107;-67
2022/08/16 08:54:04;;;;;;;2.25;1.08;;;24.60;99.90;;;;;;4456054;32;20061;-67
2022/08/16 08:56:30;;;;;;;2.05;0.55;;;24.80;99.90;;;;;;4455211;32;20065;-67
2022/08/16 08:58:56;;;;;;;1.08;0.65;;;24.90;99.90;;;;;;4459393;32;20085;-68
2022/08/16 09:01:27;;;;;;;0.47;0.47;;;25.10;99.90;;;;;;4459935;32;20060;-68
2022/08/16 09:03:53;;;;;;;1.77;0.57;;;25.10;99.90;;;;;;4453654;32;20481;-68
2022/08/16 09:06:19;;;;;;;0.70;0.70;;;25.20;99.90;;;;;;4445328;32;20065;-68
2022/08/16 09:08:44;;;;;;;1.05;0.60;;;25.40;99.90;;;;;;4444793;32;20430;-68
2022/08/16 09:11:10;;;;;;;0.45;0.45;;;25.50;99.90;;;;;;4453563;32;20060;-68
2022/08/16 09:13:36;;;;;;;3.60;0.90;;;25.60;99.90;;;;;;4459927;32;20065;-67
2022/08/16 09:16:02;;;;;;;0.50;0.50;;;25.80;99.90;;;;;;4459797;32;20078;-68
2022/08/16 09:18:28;;;;;;;2.37;0.80;;;25.90;99.90;;;;;;4453691;32;20077;-66
2022/08/16 09:20:54;;;;;;;1.25;0.55;;;25.80;99.90;;;;;;4444653;32;20415;-67
2022/08/16 09:23:20;;;;;;;0.52;0.50;;;25.80;99.90;;;;;;4444559;32;20124;-67
2022/08/16 09:25:46;;;;;;;1.05;0.65;;;25.90;99.90;;;;;;4443454;32;20058;-67
2022/08/16 09:28:12;;;;;;;0.55;0.50;;;26.20;99.90;;;;;;4449720;32;20120;-67
2022/08/16 09:30:38;;;;;;;1.25;0.60;;;26.40;99.90;;;;;;4449667;32;20065;-68
2022/08/16 09:33:05;;;;;;;3.00;1.27;;;26.40;99.90;;;;;;4450667;32;20073;-67
2022/08/16 09:35:31;;;;;;;0.30;0.30;;;26.50;99.90;;;;;;4462375;32;20482;-68
2022/08/16 09:37:56;;;;;;;0.47;0.47;;;26.60;99.90;;;;;;4454429;32;20074;-68
2022/08/16 09:40:22;;;;;;;0.45;0.45;;;26.80;99.90;;;;;;4452788;32;20065;-68
2022/08/16 09:42:48;;;;;;;1.37;0.68;;;27.10;99.90;;;;;;4451018;32;20069;-69
2022/08/16 09:45:14;;;;;;;0.30;0.30;;;27.20;99.90;;;;;;4456773;32;20076;-67
2022/08/16 09:47:40;;;;;;;1.15;0.73;;;27.40;99.90;;;;;;4462481;32;20117;-67
2022/08/16 09:50:09;;;;;;;0.30;0.30;;;27.50;99.90;;;;;;4450887;32;20114;-68
2022/08/16 09:52:36;;;;;;;1.17;0.57;;;27.60;99.90;;;;;;4459682;32;20500;-68
2022/08/16 09:55:07;;;;;;;0.40;0.40;;;27.60;99.90;;;;;;4453804;32;20061;-68
2022/08/16 09:57:33;;;;;;;0.75;0.60;;;27.70;99.90;;;;;;4447105;32;20065;-68
2022/08/16 10:00:00;;;;;;;1.90;0.57;;;27.70;99.90;;;;;;4446246;32;20072;-67
2022/08/16 10:02:27;;;;;;;5.68;0.82;;;27.70;99.90;;;;;;4448616;32;20559;-68
2022/08/16 10:04:53;;;;;;;0.30;0.30;;;27.70;99.90;;;;;;4451736;32;20058;-67
2022/08/16 10:07:18;;;;;;;0.57;0.57;;;27.50;99.90;;;;;;4460643;32;20069;-67
2022/08/16 10:09:44;;;;;;;1.35;1.05;;;27.50;99.90;;;;;;4462185;32;20508;-68
2022/08/16 10:13:10;;;;;;;0.43;0.43;;;27.70;99.90;;;;;;4463376;32;20064;-68
2022/08/16 10:14:55;;;;;;;0.85;0.70;;;28.00;99.90;;;;;;4448770;32;20533;-68
2022/08/16 10:17:21;;;;;;;0.40;0.40;;;28.50;99.90;;;;;;4462111;32;20061;-69
2022/08/16 10:19:46;;;;;;;0.22;0.22;;;28.80;99.90;;;;;;4461515;32;20148;-68
2022/08/16 10:22:12;;;;;;;0.65;0.52;;;28.70;99.90;;;;;;4455781;32;20188;-69
2022/08/16 10:24:39;;;;;;;0.52;0.52;;;28.40;99.90;;;;;;4461158;32;20107;-68
2022/08/16 10:27:05;;;;;;;1.10;0.77;;;28.10;99.90;;;;;;4460553;32;20069;-68
2022/08/16 10:29:31;;;;;;;0.55;0.40;;;28.00;99.90;;;;;;4452624;32;20066;-68
2022/08/16 10:31:56;;;;;;;0.30;0.30;;;28.20;99.90;;;;;;4458379;32;20068;-68
2022/08/16 10:34:22;;;;;;;0.55;0.47;;;28.50;99.90;;;;;;4457770;32;20115;-68
2022/08/16 10:36:47;;;;;;;0.43;0.37;;;28.80;99.90;;;;;;4461302;32;20081;-68
2022/08/16 10:39:13;;;;;;;1.75;0.30;;;29.00;99.90;;;;;;4461210;32;20512;-69
2022/08/16 10:41:38;;;;;;;0.45;0.45;;;29.00;99.90;;;;;;4457603;32;20080;-68
2022/08/16 10:44:05;;;;;;;0.50;0.40;;;29.20;99.90;;;;;;4453282;32;20627;-68
2022/08/16 10:46:31;;;;;;;1.10;0.70;;;29.40;99.60;;;;;;4447805;32;20777;-68
2022/08/16 10:48:56;;;;;;;1.27;0.32;;;29.60;99.70;;;;;;4455315;32;20054;-68
2022/08/16 10:51:22;;;;;;;20.88;0.60;;;29.60;99.90;;;;;;4446175;32;20124;-68
2022/08/16 10:53:49;;;;;;;0.85;0.55;;;29.30;99.20;;;;;;4445756;32;20523;-68
2022/08/16 10:56:14;;;;;;;0.52;0.52;;;29.20;99.90;;;;;;4456243;32;20154;-68
2022/08/16 10:58:40;;;;;;;0.30;0.30;;;29.00;99.50;;;;;;4456035;32;20072;-69
2022/08/16 11:01:07;;;;;;;0.32;0.32;;;29.20;99.90;;;;;;4460895;32;20056;-68
2022/08/16 11:03:34;;;;;;;0.90;0.55;;;29.70;98.60;;;;;;4449881;32;20419;-68
2022/08/16 11:06:01;;;;;;;0.50;0.50;;;30.00;97.90;;;;;;4445383;32;20572;-68
2022/08/16 11:08:27;;;;;;;0.70;0.45;;;30.10;97.70;;;;;;4445626;32;20073;-68
2022/08/16 11:10:52;;;;;;;0.68;0.32;;;30.40;96.80;;;;;;4446631;32;20447;-68
2022/08/16 11:13:21;;;;;;;0.35;0.32;;;30.60;97.70;;;;;;4450782;32;20066;-69
2022/08/16 11:15:46;;;;;;;0.20;0.20;;;30.40;97.50;;;;;;4460132;32;20056;-69
2022/08/16 11:18:14;;;;;;;0.88;0.45;;;30.40;97.10;;;;;;4453794;32;20111;-68
2022/08/16 11:20:42;;;;;;;0.85;0.45;;;30.40;97.00;;;;;;4450276;32;20081;-69
2022/08/16 11:23:08;;;;;;;3.30;0.65;;;30.70;96.50;;;;;;4445541;32;20061;-68
2022/08/16 11:25:34;;;;;;;0.20;0.20;;;30.50;95.80;;;;;;4445506;32;20124;-69
2022/08/16 11:28:00;;;;;;;0.77;0.50;;;30.50;96.90;;;;;;4445505;32;20112;-68
2022/08/16 11:30:28;;;;;;;0.30;0.30;;;30.50;96.20;;;;;;4447702;32;20085;-69
2022/08/16 11:32:54;;;;;;;0.32;0.32;;;30.40;96.10;;;;;;4454004;32;20065;-69
2022/08/16 11:35:23;;;;;;;1.00;0.52;;;30.10;96.20;;;;;;4460287;32;20081;-68
2022/08/16 11:37:54;;;;;;;1.87;0.28;;;30.00;96.30;;;;;;4461096;32;20069;-70
2022/08/16 11:40:21;;;;;;;0.37;0.37;;;30.00;97.20;;;;;;4460441;32;20081;-68
2022/08/16 11:42:46;;;;;;;0.55;0.55;;;30.40;96.70;;;;;;4460376;32;20067;-69
2022/08/16 11:45:12;;;;;;;0.77;0.45;;;31.10;93.70;;;;;;4459882;32;20077;-68
2022/08/16 11:47:37;;;;;;;0.30;0.30;;;31.60;93.40;;;;;;4458578;32;20073;-68
2022/08/16 11:50:07;;;;;;;0.10;0.10;;;31.80;92.20;;;;;;4460513;32;20060;-68
2022/08/16 11:52:34;;;;;;;0.73;0.60;;;31.60;92.60;;;;;;4450156;32;20056;-68
2022/08/16 11:55:01;;;;;;;0.20;0.20;;;31.50;92.80;;;;;;4446095;32;20065;-68
2022/08/16 11:57:26;;;;;;;0.30;0.30;;;31.00;92.60;;;;;;4444926;32;20054;-67
2022/08/16 11:59:52;;;;;;;2.87;0.82;;;30.70;92.80;;;;;;4448350;32;20081;-68
2022/08/16 12:02:18;;;;;;;0.75;0.43;;;30.60;93.40;;;;;;4446333;32;20061;-68
2022/08/16 12:04:44;;;;;;;0.55;0.55;;;30.90;93.20;;;;;;4450826;32;20508;-68
2022/08/16 12:07:10;;;;;;;0.25;0.25;;;31.40;92.60;;;;;;4457571;32;20077;-68
2022/08/16 12:09:36;;;;;;;0.30;0.30;;;31.30;92.50;;;;;;4455574;32;20056;-68
2022/08/16 12:12:01;;;;;;;0.30;0.30;;;31.00;92.40;;;;;;4459757;32;20126;-68
2022/08/16 12:14:27;;;;;;;0.47;0.47;;;30.60;92.90;;;;;;4460675;32;20122;-69
2022/08/16 12:16:54;;;;;;;0.20;0.20;;;31.00;92.90;;;;;;4459902;32;20076;-69
2022/08/16 12:19:20;;;;;;;4.03;1.02;;;31.60;92.60;;;;;;4461793;32;20446;-69
2022/08/16 12:21:46;;;;;;;0.50;0.50;;;32.50;90.50;;;;;;4447946;32;20101;-69
2022/08/16 12:24:11;;;;;;;0.30;0.30;;;32.10;90.30;;;;;;4444932;32;20068;-69
2022/08/16 12:26:37;;;;;;;0.40;0.40;;;31.90;90.10;;;;;;4454117;32;20450;-69
2022/08/16 12:29:03;;;;;;;0.88;0.37;;;31.40;91.00;;;;;;4459401;32;20057;-69
2022/08/16 12:31:28;;;;;;;0.43;0.43;;;30.80;91.50;;;;;;4459653;32;20521;-69
2022/08/16 12:33:54;;;;;;;0.85;0.50;;;30.20;92.50;;;;;;4460112;32;20122;-69
2022/08/16 12:36:20;;;;;;;0.20;0.20;;;29.90;91.40;;;;;;4458889;32;20064;-69
2022/08/16 12:38:46;;;;;;;0.57;0.50;;;29.60;92.50;;;;;;4459253;32;20414;-69
2022/08/16 12:41:12;;;;;;;0.22;0.22;;;29.40;93.10;;;;;;4459034;32;20069;-69
2022/08/16 12:43:40;;;;;;;0.20;0.20;;;29.70;92.50;;;;;;4445285;32;20584;-69